sensor_id;sensor_type;location;lat;lon;timestamp;P1;durP1;ratioP1;P2;durP2;ratioP2
37495;SDS011;23346;52.088;4.746;2024-03-23T00:53:00;22.27;;;21.37;;
37495;SDS011;23346;52.088;4.746;2024-03-23T00:55:26;21.47;;;20.57;;
37495;SDS011;23346;52.088;4.746;2024-03-23T00:57:52;22.87;;;21.97;;
37495;SDS011;23346;52.088;4.746;2024-03-23T01:00:18;24.63;;;23.63;;
37495;SDS011;23346;52.088;4.746;2024-03-23T01:02:44;24.80;;;23.80;;
37495;SDS011;23346;52.088;4.746;2024-03-23T01:05:10;26.13;;;25.03;;
37495;SDS011;23346;52.088;4.746;2024-03-23T01:07:36;27.90;;;26.73;;
37495;SDS011;23346;52.088;4.746;2024-03-23T01:10:02;28.87;;;27.67;;
37495;SDS011;23346;52.088;4.746;2024-03-23T01:12:29;28.70;;;27.50;;
37495;SDS011;23346;52.088;4.746;2024-03-23T01:14:55;30.67;;;29.37;;
37495;SDS011;23346;52.088;4.746;2024-03-23T01:17:21;28.23;;;27.03;;
37495;SDS011;23346;52.088;4.746;2024-03-23T01:19:47;29.37;;;28.13;;
37495;SDS011;23346;52.088;4.746;2024-03-23T01:22:13;26.83;;;25.73;;
37495;SDS011;23346;52.088;4.746;2024-03-23T01:24:39;23.60;;;22.63;;
37495;SDS011;23346;52.088;4.746;2024-03-23T01:27:05;22.43;;;21.53;;
37495;SDS011;23346;52.088;4.746;2024-03-23T01:29:31;22.53;;;21.63;;
37495;SDS011;23346;52.088;4.746;2024-03-23T01:31:57;23.67;;;22.67;;
37495;SDS011;23346;52.088;4.746;2024-03-23T01:34:23;22.40;;;21.50;;
37495;SDS011;23346;52.088;4.746;2024-03-23T01:36:50;21.40;;;20.50;;
37495;SDS011;23346;52.088;4.746;2024-03-23T01:39:16;22.23;;;21.33;;
37495;SDS011;23346;52.088;4.746;2024-03-23T01:41:42;21.13;;;20.23;;
37495;SDS011;23346;52.088;4.746;2024-03-23T01:44:08;21.33;;;20.43;;
37495;SDS011;23346;52.088;4.746;2024-03-23T01:46:37;20.97;;;20.10;;
37495;SDS011;23346;52.088;4.746;2024-03-23T01:49:07;21.73;;;20.83;;
37495;SDS011;23346;52.088;4.746;2024-03-23T01:51:33;21.63;;;20.73;;
37495;SDS011;23346;52.088;4.746;2024-03-23T01:53:59;21.63;;;20.73;;
37495;SDS011;23346;52.088;4.746;2024-03-23T01:56:27;21.13;;;20.23;;
37495;SDS011;23346;52.088;4.746;2024-03-23T01:58:54;21.20;;;20.30;;
37495;SDS011;23346;52.088;4.746;2024-03-23T02:01:20;22.67;;;21.77;;
37495;SDS011;23346;52.088;4.746;2024-03-23T02:03:46;21.97;;;21.07;;
37495;SDS011;23346;52.088;4.746;2024-03-23T02:06:12;22.40;;;21.50;;
37495;SDS011;23346;52.088;4.746;2024-03-23T02:08:38;22.07;;;21.17;;
37495;SDS011;23346;52.088;4.746;2024-03-23T02:11:04;22.23;;;21.33;;
37495;SDS011;23346;52.088;4.746;2024-03-23T02:13:30;22.10;;;21.20;;
37495;SDS011;23346;52.088;4.746;2024-03-23T02:15:57;22.77;;;21.87;;
37495;SDS011;23346;52.088;4.746;2024-03-23T02:18:23;24.30;;;23.30;;
37495;SDS011;23346;52.088;4.746;2024-03-23T02:20:49;25.63;;;24.57;;
37495;SDS011;23346;52.088;4.746;2024-03-23T02:23:15;23.40;;;22.40;;
37495;SDS011;23346;52.088;4.746;2024-03-23T02:25:42;23.60;;;22.60;;
37495;SDS011;23346;52.088;4.746;2024-03-23T02:28:08;24.33;;;23.33;;
37495;SDS011;23346;52.088;4.746;2024-03-23T02:30:34;24.27;;;23.27;;
37495;SDS011;23346;52.088;4.746;2024-03-23T02:33:00;25.07;;;24.07;;
37495;SDS011;23346;52.088;4.746;2024-03-23T02:35:26;25.30;;;24.30;;
37495;SDS011;23346;52.088;4.746;2024-03-23T02:37:52;24.23;;;23.23;;
37495;SDS011;23346;52.088;4.746;2024-03-23T02:40:19;24.50;;;23.50;;
37495;SDS011;23346;52.088;4.746;2024-03-23T02:42:46;24.50;;;23.50;;
37495;SDS011;23346;52.088;4.746;2024-03-23T02:45:12;25.40;;;24.40;;
37495;SDS011;23346;52.088;4.746;2024-03-23T02:47:38;24.60;;;23.60;;
37495;SDS011;23346;52.088;4.746;2024-03-23T02:50:04;24.67;;;23.67;;
37495;SDS011;23346;52.088;4.746;2024-03-23T02:52:30;24.03;;;23.03;;
37495;SDS011;23346;52.088;4.746;2024-03-23T02:54:56;24.70;;;23.70;;
37495;SDS011;23346;52.088;4.746;2024-03-23T02:57:22;23.27;;;22.30;;
37495;SDS011;23346;52.088;4.746;2024-03-23T02:59:48;24.60;;;23.60;;
37495;SDS011;23346;52.088;4.746;2024-03-23T03:02:15;24.10;;;23.10;;
37495;SDS011;23346;52.088;4.746;2024-03-23T03:04:41;23.17;;;22.27;;
37495;SDS011;23346;52.088;4.746;2024-03-23T03:07:07;24.97;;;23.97;;
37495;SDS011;23346;52.088;4.746;2024-03-23T03:09:34;24.67;;;23.67;;
37495;SDS011;23346;52.088;4.746;2024-03-23T03:12:00;24.00;;;23.00;;
37495;SDS011;23346;52.088;4.746;2024-03-23T03:14:27;24.23;;;23.23;;
37495;SDS011;23346;52.088;4.746;2024-03-23T03:16:53;24.93;;;23.93;;
37495;SDS011;23346;52.088;4.746;2024-03-23T03:19:19;24.93;;;23.93;;
37495;SDS011;23346;52.088;4.746;2024-03-23T03:21:45;24.23;;;23.23;;
37495;SDS011;23346;52.088;4.746;2024-03-23T03:24:12;24.57;;;23.57;;
37495;SDS011;23346;52.088;4.746;2024-03-23T03:26:38;23.97;;;22.97;;
37495;SDS011;23346;52.088;4.746;2024-03-23T03:29:04;23.63;;;22.63;;
37495;SDS011;23346;52.088;4.746;2024-03-23T03:31:30;24.27;;;23.27;;
37495;SDS011;23346;52.088;4.746;2024-03-23T03:33:56;22.60;;;21.70;;
37495;SDS011;23346;52.088;4.746;2024-03-23T03:36:22;22.77;;;21.87;;
37495;SDS011;23346;52.088;4.746;2024-03-23T03:38:48;22.93;;;22.03;;
37495;SDS011;23346;52.088;4.746;2024-03-23T03:41:14;22.77;;;21.87;;
37495;SDS011;23346;52.088;4.746;2024-03-23T03:43:40;23.70;;;22.70;;
37495;SDS011;23346;52.088;4.746;2024-03-23T03:46:06;23.50;;;22.53;;
37495;SDS011;23346;52.088;4.746;2024-03-23T03:48:33;24.90;;;23.90;;
37495;SDS011;23346;52.088;4.746;2024-03-23T03:50:59;24.03;;;23.03;;
37495;SDS011;23346;52.088;4.746;2024-03-23T03:53:25;22.37;;;21.47;;
37495;SDS011;23346;52.088;4.746;2024-03-23T03:55:51;21.90;;;21.00;;
37495;SDS011;23346;52.088;4.746;2024-03-23T03:58:17;22.87;;;21.97;;
37495;SDS011;23346;52.088;4.746;2024-03-23T04:00:43;23.47;;;22.50;;
37495;SDS011;23346;52.088;4.746;2024-03-23T04:03:09;22.80;;;21.90;;
37495;SDS011;23346;52.088;4.746;2024-03-23T04:05:35;24.37;;;23.37;;
37495;SDS011;23346;52.088;4.746;2024-03-23T04:08:01;23.63;;;22.63;;
37495;SDS011;23346;52.088;4.746;2024-03-23T04:10:27;22.43;;;21.53;;
37495;SDS011;23346;52.088;4.746;2024-03-23T04:12:53;22.47;;;21.57;;
37495;SDS011;23346;52.088;4.746;2024-03-23T04:15:20;22.40;;;21.50;;
37495;SDS011;23346;52.088;4.746;2024-03-23T04:17:46;24.07;;;23.07;;
37495;SDS011;23346;52.088;4.746;2024-03-23T04:20:12;22.27;;;21.37;;
37495;SDS011;23346;52.088;4.746;2024-03-23T04:22:41;23.07;;;22.17;;
37495;SDS011;23346;52.088;4.746;2024-03-23T04:25:07;24.60;;;23.60;;
37495;SDS011;23346;52.088;4.746;2024-03-23T04:27:35;25.47;;;24.37;;
37495;SDS011;23346;52.088;4.746;2024-03-23T04:30:01;24.50;;;23.50;;
37495;SDS011;23346;52.088;4.746;2024-03-23T04:32:29;23.67;;;22.67;;
37495;SDS011;23346;52.088;4.746;2024-03-23T04:34:55;22.93;;;22.03;;
37495;SDS011;23346;52.088;4.746;2024-03-23T04:37:21;24.30;;;23.30;;
37495;SDS011;23346;52.088;4.746;2024-03-23T04:39:47;23.87;;;22.87;;
37495;SDS011;23346;52.088;4.746;2024-03-23T04:42:16;23.77;;;22.73;;
37495;SDS011;23346;52.088;4.746;2024-03-23T04:44:42;23.40;;;22.40;;
37495;SDS011;23346;52.088;4.746;2024-03-23T04:47:09;25.33;;;24.33;;
37495;SDS011;23346;52.088;4.746;2024-03-23T04:49:35;23.20;;;22.30;;
37495;SDS011;23346;52.088;4.746;2024-03-23T04:52:02;24.43;;;23.43;;
37495;SDS011;23346;52.088;4.746;2024-03-23T04:54:28;24.10;;;23.10;;
37495;SDS011;23346;52.088;4.746;2024-03-23T04:56:54;25.47;;;24.47;;
37495;SDS011;23346;52.088;4.746;2024-03-23T04:59:20;25.20;;;24.20;;
37495;SDS011;23346;52.088;4.746;2024-03-23T05:01:46;29.43;;;27.80;;
37495;SDS011;23346;52.088;4.746;2024-03-23T05:04:12;24.80;;;23.80;;
37495;SDS011;23346;52.088;4.746;2024-03-23T05:06:38;25.07;;;24.07;;
37495;SDS011;23346;52.088;4.746;2024-03-23T05:09:04;24.93;;;23.93;;
37495;SDS011;23346;52.088;4.746;2024-03-23T05:11:37;24.50;;;23.50;;
37495;SDS011;23346;52.088;4.746;2024-03-23T05:14:03;30.50;;;29.20;;
37495;SDS011;23346;52.088;4.746;2024-03-23T05:16:29;23.90;;;22.90;;
37495;SDS011;23346;52.088;4.746;2024-03-23T05:18:55;24.77;;;23.73;;
37495;SDS011;23346;52.088;4.746;2024-03-23T05:21:21;25.47;;;24.43;;
37495;SDS011;23346;52.088;4.746;2024-03-23T05:23:47;25.57;;;24.50;;
37495;SDS011;23346;52.088;4.746;2024-03-23T05:26:13;27.60;;;26.40;;
37495;SDS011;23346;52.088;4.746;2024-03-23T05:28:40;24.50;;;23.50;;
37495;SDS011;23346;52.088;4.746;2024-03-23T05:31:06;24.70;;;23.70;;
37495;SDS011;23346;52.088;4.746;2024-03-23T05:33:34;25.23;;;24.23;;
37495;SDS011;23346;52.088;4.746;2024-03-23T05:36:00;26.00;;;24.90;;
37495;SDS011;23346;52.088;4.746;2024-03-23T05:38:26;26.33;;;25.23;;
37495;SDS011;23346;52.088;4.746;2024-03-23T05:40:53;27.63;;;25.87;;
37495;SDS011;23346;52.088;4.746;2024-03-23T05:43:20;26.50;;;25.40;;
37495;SDS011;23346;52.088;4.746;2024-03-23T05:45:46;26.60;;;25.30;;
37495;SDS011;23346;52.088;4.746;2024-03-23T05:48:12;25.83;;;24.60;;
37495;SDS011;23346;52.088;4.746;2024-03-23T05:50:38;24.50;;;23.50;;
37495;SDS011;23346;52.088;4.746;2024-03-23T05:53:04;31.73;;;30.23;;
37495;SDS011;23346;52.088;4.746;2024-03-23T05:55:30;25.20;;;24.20;;
37495;SDS011;23346;52.088;4.746;2024-03-23T05:57:57;26.90;;;25.80;;
37495;SDS011;23346;52.088;4.746;2024-03-23T06:00:23;28.33;;;27.13;;
37495;SDS011;23346;52.088;4.746;2024-03-23T06:02:51;28.20;;;27.00;;
37495;SDS011;23346;52.088;4.746;2024-03-23T06:05:17;29.00;;;27.80;;
37495;SDS011;23346;52.088;4.746;2024-03-23T06:07:43;28.40;;;27.20;;
37495;SDS011;23346;52.088;4.746;2024-03-23T06:10:09;27.57;;;26.47;;
37495;SDS011;23346;52.088;4.746;2024-03-23T06:12:35;35.23;;;32.00;;
37495;SDS011;23346;52.088;4.746;2024-03-23T06:15:01;31.70;;;30.40;;
37495;SDS011;23346;52.088;4.746;2024-03-23T06:17:27;31.50;;;30.13;;
37495;SDS011;23346;52.088;4.746;2024-03-23T06:19:53;33.37;;;31.97;;
37495;SDS011;23346;52.088;4.746;2024-03-23T06:22:19;31.77;;;30.43;;
37495;SDS011;23346;52.088;4.746;2024-03-23T06:24:45;31.50;;;30.20;;
37495;SDS011;23346;52.088;4.746;2024-03-23T06:27:11;30.57;;;29.27;;
37495;SDS011;23346;52.088;4.746;2024-03-23T06:29:37;29.73;;;28.43;;
37495;SDS011;23346;52.088;4.746;2024-03-23T06:32:03;30.37;;;29.10;;
37495;SDS011;23346;52.088;4.746;2024-03-23T06:34:29;30.97;;;29.67;;
37495;SDS011;23346;52.088;4.746;2024-03-23T06:36:55;31.33;;;30.03;;
37495;SDS011;23346;52.088;4.746;2024-03-23T06:39:21;32.40;;;31.03;;
37495;SDS011;23346;52.088;4.746;2024-03-23T06:41:53;31.70;;;30.40;;
37495;SDS011;23346;52.088;4.746;2024-03-23T06:44:20;33.60;;;32.20;;
37495;SDS011;23346;52.088;4.746;2024-03-23T06:46:46;40.90;;;38.47;;
37495;SDS011;23346;52.088;4.746;2024-03-23T06:49:13;37.07;;;35.50;;
37495;SDS011;23346;52.088;4.746;2024-03-23T06:51:40;39.53;;;37.83;;
37495;SDS011;23346;52.088;4.746;2024-03-23T06:54:06;46.27;;;44.27;;
37495;SDS011;23346;52.088;4.746;2024-03-23T06:56:32;45.90;;;43.93;;
37495;SDS011;23346;52.088;4.746;2024-03-23T06:58:58;46.27;;;44.07;;
37495;SDS011;23346;52.088;4.746;2024-03-23T07:01:24;41.33;;;39.47;;
37495;SDS011;23346;52.088;4.746;2024-03-23T07:03:50;38.27;;;36.67;;
37495;SDS011;23346;52.088;4.746;2024-03-23T07:06:16;37.57;;;35.97;;
37495;SDS011;23346;52.088;4.746;2024-03-23T07:08:42;73.47;;;69.40;;
37495;SDS011;23346;52.088;4.746;2024-03-23T07:11:08;33.97;;;32.57;;
37495;SDS011;23346;52.088;4.746;2024-03-23T07:13:34;41.57;;;39.57;;
37495;SDS011;23346;52.088;4.746;2024-03-23T07:16:00;30.83;;;29.53;;
37495;SDS011;23346;52.088;4.746;2024-03-23T07:18:26;35.53;;;33.63;;
37495;SDS011;23346;52.088;4.746;2024-03-23T07:20:56;32.20;;;30.80;;
37495;SDS011;23346;52.088;4.746;2024-03-23T07:23:22;30.93;;;29.63;;
37495;SDS011;23346;52.088;4.746;2024-03-23T07:25:58;35.50;;;33.23;;
37495;SDS011;23346;52.088;4.746;2024-03-23T07:28:24;35.57;;;33.97;;
37495;SDS011;23346;52.088;4.746;2024-03-23T07:31:05;36.27;;;34.33;;
37495;SDS011;23346;52.088;4.746;2024-03-23T07:33:34;34.70;;;33.20;;
37495;SDS011;23346;52.088;4.746;2024-03-23T07:36:00;33.97;;;32.47;;
37495;SDS011;23346;52.088;4.746;2024-03-23T07:38:27;33.00;;;31.30;;
37495;SDS011;23346;52.088;4.746;2024-03-23T07:41:06;43.17;;;41.27;;
37495;SDS011;23346;52.088;4.746;2024-03-23T07:43:32;31.93;;;30.43;;
37495;SDS011;23346;52.088;4.746;2024-03-23T07:45:58;33.73;;;32.27;;
37495;SDS011;23346;52.088;4.746;2024-03-23T07:48:24;85.63;;;81.17;;
37495;SDS011;23346;52.088;4.746;2024-03-23T07:51:00;40.83;;;37.87;;
37495;SDS011;23346;52.088;4.746;2024-03-23T07:53:27;41.70;;;39.90;;
37495;SDS011;23346;52.088;4.746;2024-03-23T07:55:57;52.83;;;50.37;;
37495;SDS011;23346;52.088;4.746;2024-03-23T07:58:24;51.13;;;47.93;;
37495;SDS011;23346;52.088;4.746;2024-03-23T08:00:50;43.83;;;41.83;;
37495;SDS011;23346;52.088;4.746;2024-03-23T08:03:16;32.30;;;30.90;;
37495;SDS011;23346;52.088;4.746;2024-03-23T08:05:42;37.97;;;36.23;;
37495;SDS011;23346;52.088;4.746;2024-03-23T08:08:08;38.07;;;36.27;;
37495;SDS011;23346;52.088;4.746;2024-03-23T08:10:34;36.23;;;34.73;;
37495;SDS011;23346;52.088;4.746;2024-03-23T08:13:00;42.40;;;40.50;;
37495;SDS011;23346;52.088;4.746;2024-03-23T08:15:26;53.27;;;50.47;;
37495;SDS011;23346;52.088;4.746;2024-03-23T08:17:52;40.47;;;38.73;;
37495;SDS011;23346;52.088;4.746;2024-03-23T08:20:18;41.33;;;38.90;;
37495;SDS011;23346;52.088;4.746;2024-03-23T08:22:44;35.73;;;34.13;;
37495;SDS011;23346;52.088;4.746;2024-03-23T08:25:10;37.27;;;35.67;;
37495;SDS011;23346;52.088;4.746;2024-03-23T08:27:36;38.30;;;36.63;;
37495;SDS011;23346;52.088;4.746;2024-03-23T08:30:02;41.43;;;39.63;;
37495;SDS011;23346;52.088;4.746;2024-03-23T08:32:28;42.07;;;40.27;;
37495;SDS011;23346;52.088;4.746;2024-03-23T08:34:54;48.03;;;45.33;;
37495;SDS011;23346;52.088;4.746;2024-03-23T08:37:20;46.20;;;44.07;;
37495;SDS011;23346;52.088;4.746;2024-03-23T08:39:46;47.77;;;45.57;;
37495;SDS011;23346;52.088;4.746;2024-03-23T08:42:12;43.57;;;41.67;;
37495;SDS011;23346;52.088;4.746;2024-03-23T08:44:38;66.23;;;61.57;;
37495;SDS011;23346;52.088;4.746;2024-03-23T08:47:04;35.93;;;34.13;;
37495;SDS011;23346;52.088;4.746;2024-03-23T08:49:30;34.53;;;33.07;;
37495;SDS011;23346;52.088;4.746;2024-03-23T08:51:56;42.77;;;40.73;;
37495;SDS011;23346;52.088;4.746;2024-03-23T08:54:22;43.07;;;41.17;;
37495;SDS011;23346;52.088;4.746;2024-03-23T08:56:48;37.37;;;35.77;;
37495;SDS011;23346;52.088;4.746;2024-03-23T08:59:14;39.47;;;37.77;;
37495;SDS011;23346;52.088;4.746;2024-03-23T09:01:40;55.97;;;52.30;;
37495;SDS011;23346;52.088;4.746;2024-03-23T09:04:06;41.20;;;39.40;;
37495;SDS011;23346;52.088;4.746;2024-03-23T09:06:32;47.43;;;45.37;;
37495;SDS011;23346;52.088;4.746;2024-03-23T09:08:58;72.03;;;67.53;;
37495;SDS011;23346;52.088;4.746;2024-03-23T09:11:24;42.43;;;40.53;;
37495;SDS011;23346;52.088;4.746;2024-03-23T09:13:50;48.60;;;46.30;;
37495;SDS011;23346;52.088;4.746;2024-03-23T09:16:16;46.87;;;44.73;;
37495;SDS011;23346;52.088;4.746;2024-03-23T09:18:42;42.97;;;40.80;;
37495;SDS011;23346;52.088;4.746;2024-03-23T09:21:11;42.57;;;40.73;;
37495;SDS011;23346;52.088;4.746;2024-03-23T09:23:38;53.53;;;51.00;;
37495;SDS011;23346;52.088;4.746;2024-03-23T09:26:04;56.37;;;53.43;;
37495;SDS011;23346;52.088;4.746;2024-03-23T09:28:32;38.83;;;37.03;;
37495;SDS011;23346;52.088;4.746;2024-03-23T09:33:30;42.50;;;40.63;;
37495;SDS011;23346;52.088;4.746;2024-03-23T09:35:56;46.43;;;44.33;;
37495;SDS011;23346;52.088;4.746;2024-03-23T09:38:22;46.30;;;44.07;;
37495;SDS011;23346;52.088;4.746;2024-03-23T09:40:52;66.80;;;63.73;;
37495;SDS011;23346;52.088;4.746;2024-03-23T09:43:18;75.37;;;72.07;;
37495;SDS011;23346;52.088;4.746;2024-03-23T09:45:45;89.43;;;83.37;;
37495;SDS011;23346;52.088;4.746;2024-03-23T09:48:11;55.70;;;53.07;;
37495;SDS011;23346;52.088;4.746;2024-03-23T09:50:42;73.70;;;69.80;;
37495;SDS011;23346;52.088;4.746;2024-03-23T09:53:09;60.93;;;58.13;;
37495;SDS011;23346;52.088;4.746;2024-03-23T09:55:36;57.50;;;54.90;;
37495;SDS011;23346;52.088;4.746;2024-03-23T09:58:02;43.97;;;41.70;;
37495;SDS011;23346;52.088;4.746;2024-03-23T10:00:29;44.13;;;42.13;;
37495;SDS011;23346;52.088;4.746;2024-03-23T10:02:56;43.90;;;41.97;;
37495;SDS011;23346;52.088;4.746;2024-03-23T10:05:26;52.30;;;49.17;;
37495;SDS011;23346;52.088;4.746;2024-03-23T10:07:52;94.17;;;86.00;;
37495;SDS011;23346;52.088;4.746;2024-03-23T10:10:19;40.07;;;38.27;;
37495;SDS011;23346;52.088;4.746;2024-03-23T10:12:49;41.73;;;39.83;;
37495;SDS011;23346;52.088;4.746;2024-03-23T10:15:19;38.77;;;37.07;;
37495;SDS011;23346;52.088;4.746;2024-03-23T10:17:46;71.93;;;67.50;;
37495;SDS011;23346;52.088;4.746;2024-03-23T10:20:12;33.83;;;32.37;;
37495;SDS011;23346;52.088;4.746;2024-03-23T10:22:38;34.30;;;32.80;;
37495;SDS011;23346;52.088;4.746;2024-03-23T10:25:09;47.83;;;45.20;;
37495;SDS011;23346;52.088;4.746;2024-03-23T10:27:35;47.43;;;45.03;;
37495;SDS011;23346;52.088;4.746;2024-03-23T10:30:10;41.60;;;39.80;;
37495;SDS011;23346;52.088;4.746;2024-03-23T10:32:37;38.97;;;37.10;;
37495;SDS011;23346;52.088;4.746;2024-03-23T10:35:16;44.80;;;42.67;;
37495;SDS011;23346;52.088;4.746;2024-03-23T10:37:48;41.47;;;39.67;;
37495;SDS011;23346;52.088;4.746;2024-03-23T10:40:15;44.30;;;42.30;;
37495;SDS011;23346;52.088;4.746;2024-03-23T10:42:41;57.07;;;54.30;;
37495;SDS011;23346;52.088;4.746;2024-03-23T10:45:07;47.97;;;45.53;;
37495;SDS011;23346;52.088;4.746;2024-03-23T10:47:34;47.20;;;44.93;;
37495;SDS011;23346;52.088;4.746;2024-03-23T10:50:01;40.67;;;38.90;;
37495;SDS011;23346;52.088;4.746;2024-03-23T10:52:27;40.63;;;38.73;;
37495;SDS011;23346;52.088;4.746;2024-03-23T10:54:53;40.43;;;38.63;;
37495;SDS011;23346;52.088;4.746;2024-03-23T10:57:23;39.87;;;38.10;;
37495;SDS011;23346;52.088;4.746;2024-03-23T10:59:52;42.07;;;40.07;;
37495;SDS011;23346;52.088;4.746;2024-03-23T11:02:19;51.77;;;49.03;;
37495;SDS011;23346;52.088;4.746;2024-03-23T11:04:46;44.67;;;42.33;;
37495;SDS011;23346;52.088;4.746;2024-03-23T11:09:53;40.40;;;38.60;;
37495;SDS011;23346;52.088;4.746;2024-03-23T11:14:45;113.50;;;105.50;;
37495;SDS011;23346;52.088;4.746;2024-03-23T11:17:13;82.30;;;76.17;;
37495;SDS011;23346;52.088;4.746;2024-03-23T11:19:43;50.37;;;47.50;;
37495;SDS011;23346;52.088;4.746;2024-03-23T11:22:09;42.63;;;40.63;;
37495;SDS011;23346;52.088;4.746;2024-03-23T11:24:35;68.43;;;65.33;;
37495;SDS011;23346;52.088;4.746;2024-03-23T11:27:05;58.13;;;55.27;;
37495;SDS011;23346;52.088;4.746;2024-03-23T11:29:41;54.90;;;52.17;;
37495;SDS011;23346;52.088;4.746;2024-03-23T11:32:07;52.17;;;49.87;;
37495;SDS011;23346;52.088;4.746;2024-03-23T11:34:41;56.23;;;53.70;;
37495;SDS011;23346;52.088;4.746;2024-03-23T11:37:07;50.77;;;48.30;;
37495;SDS011;23346;52.088;4.746;2024-03-23T11:39:33;59.17;;;53.43;;
37495;SDS011;23346;52.088;4.746;2024-03-23T11:41:59;62.67;;;59.37;;
37495;SDS011;23346;52.088;4.746;2024-03-23T11:44:25;46.03;;;43.83;;
37495;SDS011;23346;52.088;4.746;2024-03-23T11:46:52;59.10;;;54.13;;
37495;SDS011;23346;52.088;4.746;2024-03-23T11:49:24;45.57;;;43.53;;
37495;SDS011;23346;52.088;4.746;2024-03-23T11:51:51;50.67;;;48.47;;
37495;SDS011;23346;52.088;4.746;2024-03-23T11:54:25;53.90;;;51.33;;
37495;SDS011;23346;52.088;4.746;2024-03-23T11:56:55;56.30;;;52.20;;
37495;SDS011;23346;52.088;4.746;2024-03-23T12:04:32;121.40;;;111.77;;
37495;SDS011;23346;52.088;4.746;2024-03-23T12:09:35;52.40;;;49.90;;
37495;SDS011;23346;52.088;4.746;2024-03-23T12:12:13;48.73;;;46.60;;
37495;SDS011;23346;52.088;4.746;2024-03-23T12:14:45;50.80;;;48.50;;
37495;SDS011;23346;52.088;4.746;2024-03-23T12:17:26;48.57;;;46.37;;
37495;SDS011;23346;52.088;4.746;2024-03-23T12:19:52;70.37;;;66.27;;
37495;SDS011;23346;52.088;4.746;2024-03-23T12:22:21;110.40;;;101.90;;
37495;SDS011;23346;52.088;4.746;2024-03-23T12:24:47;51.10;;;48.80;;
37495;SDS011;23346;52.088;4.746;2024-03-23T12:27:13;52.17;;;49.87;;
37495;SDS011;23346;52.088;4.746;2024-03-23T12:29:40;49.17;;;46.37;;
37495;SDS011;23346;52.088;4.746;2024-03-23T12:32:12;60.20;;;56.67;;
37495;SDS011;23346;52.088;4.746;2024-03-23T12:34:39;56.97;;;54.43;;
37495;SDS011;23346;52.088;4.746;2024-03-23T12:37:05;77.47;;;72.80;;
37495;SDS011;23346;52.088;4.746;2024-03-23T12:39:31;139.63;;;118.97;;
37495;SDS011;23346;52.088;4.746;2024-03-23T12:41:57;58.03;;;55.20;;
37495;SDS011;23346;52.088;4.746;2024-03-23T12:44:23;50.23;;;47.93;;
37495;SDS011;23346;52.088;4.746;2024-03-23T12:46:49;44.73;;;42.73;;
37495;SDS011;23346;52.088;4.746;2024-03-23T12:49:15;44.77;;;42.77;;
37495;SDS011;23346;52.088;4.746;2024-03-23T12:51:46;43.20;;;41.30;;
37495;SDS011;23346;52.088;4.746;2024-03-23T12:54:13;45.23;;;43.23;;
37495;SDS011;23346;52.088;4.746;2024-03-23T12:56:39;47.60;;;45.50;;
37495;SDS011;23346;52.088;4.746;2024-03-23T12:59:05;44.53;;;42.53;;
37495;SDS011;23346;52.088;4.746;2024-03-23T13:01:32;38.07;;;36.47;;
37495;SDS011;23346;52.088;4.746;2024-03-23T13:03:58;37.60;;;36.00;;
37495;SDS011;23346;52.088;4.746;2024-03-23T13:06:25;40.30;;;38.57;;
37495;SDS011;23346;52.088;4.746;2024-03-23T13:08:52;38.20;;;36.53;;
37495;SDS011;23346;52.088;4.746;2024-03-23T13:11:19;36.17;;;34.60;;
37495;SDS011;23346;52.088;4.746;2024-03-23T13:13:45;44.17;;;42.23;;
37495;SDS011;23346;52.088;4.746;2024-03-23T13:16:11;39.07;;;37.37;;
37495;SDS011;23346;52.088;4.746;2024-03-23T13:18:37;35.70;;;34.20;;
37495;SDS011;23346;52.088;4.746;2024-03-23T13:21:03;36.03;;;34.43;;
37495;SDS011;23346;52.088;4.746;2024-03-23T13:23:29;38.47;;;36.77;;
37495;SDS011;23346;52.088;4.746;2024-03-23T13:25:56;38.67;;;37.00;;
37495;SDS011;23346;52.088;4.746;2024-03-23T13:28:22;46.30;;;44.30;;
37495;SDS011;23346;52.088;4.746;2024-03-23T13:30:54;42.20;;;40.40;;
37495;SDS011;23346;52.088;4.746;2024-03-23T13:33:21;53.53;;;51.13;;
37495;SDS011;23346;52.088;4.746;2024-03-23T13:35:53;38.43;;;36.73;;
37495;SDS011;23346;52.088;4.746;2024-03-23T13:38:20;46.93;;;44.87;;
37495;SDS011;23346;52.088;4.746;2024-03-23T13:40:52;103.23;;;96.17;;
37495;SDS011;23346;52.088;4.746;2024-03-23T13:43:19;53.50;;;51.03;;
37495;SDS011;23346;52.088;4.746;2024-03-23T13:45:48;38.20;;;36.50;;
37495;SDS011;23346;52.088;4.746;2024-03-23T13:48:15;42.73;;;40.83;;
37495;SDS011;23346;52.088;4.746;2024-03-23T13:50:41;58.13;;;55.40;;
37495;SDS011;23346;52.088;4.746;2024-03-23T13:53:07;54.17;;;51.77;;
37495;SDS011;23346;52.088;4.746;2024-03-23T13:55:33;47.90;;;45.80;;
37495;SDS011;23346;52.088;4.746;2024-03-23T13:58:00;52.10;;;49.63;;
37495;SDS011;23346;52.088;4.746;2024-03-23T14:00:26;61.20;;;58.47;;
37495;SDS011;23346;52.088;4.746;2024-03-23T14:02:52;70.70;;;67.30;;
37495;SDS011;23346;52.088;4.746;2024-03-23T14:05:18;68.60;;;65.57;;
37495;SDS011;23346;52.088;4.746;2024-03-23T14:07:44;57.73;;;54.93;;
37495;SDS011;23346;52.088;4.746;2024-03-23T14:10:10;80.10;;;73.97;;
37495;SDS011;23346;52.088;4.746;2024-03-23T14:12:36;43.70;;;41.80;;
37495;SDS011;23346;52.088;4.746;2024-03-23T14:15:06;44.23;;;42.30;;
37495;SDS011;23346;52.088;4.746;2024-03-23T14:17:32;46.60;;;44.27;;
37495;SDS011;23346;52.088;4.746;2024-03-23T14:19:58;38.57;;;36.87;;
37495;SDS011;23346;52.088;4.746;2024-03-23T14:22:30;75.70;;;72.20;;
37495;SDS011;23346;52.088;4.746;2024-03-23T14:24:57;53.40;;;51.03;;
37495;SDS011;23346;52.088;4.746;2024-03-23T14:27:23;50.47;;;48.27;;
37495;SDS011;23346;52.088;4.746;2024-03-23T14:29:49;36.05;;;34.45;;
37495;SDS011;23346;52.088;4.746;2024-03-23T14:32:15;37.95;;;36.30;;
37495;SDS011;23346;52.088;4.746;2024-03-23T14:34:41;39.28;;;37.45;;
37495;SDS011;23346;52.088;4.746;2024-03-23T14:37:07;42.27;;;40.13;;
37495;SDS011;23346;52.088;4.746;2024-03-23T14:39:33;48.63;;;45.78;;
37495;SDS011;23346;52.088;4.746;2024-03-23T14:42:00;47.35;;;45.03;;
37495;SDS011;23346;52.088;4.746;2024-03-23T14:44:27;44.85;;;42.80;;
37495;SDS011;23346;52.088;4.746;2024-03-23T14:46:53;37.13;;;35.53;;
37495;SDS011;23346;52.088;4.746;2024-03-23T14:49:20;33.33;;;31.88;;
37495;SDS011;23346;52.088;4.746;2024-03-23T14:51:49;37.13;;;35.42;;
37495;SDS011;23346;52.088;4.746;2024-03-23T14:54:15;38.40;;;36.70;;
37495;SDS011;23346;52.088;4.746;2024-03-23T14:56:41;43.67;;;41.78;;
37495;SDS011;23346;52.088;4.746;2024-03-23T14:59:07;37.63;;;36.00;;
37495;SDS011;23346;52.088;4.746;2024-03-23T15:01:33;33.28;;;31.88;;
37495;SDS011;23346;52.088;4.746;2024-03-23T15:04:00;36.78;;;35.08;;
37495;SDS011;23346;52.088;4.746;2024-03-23T15:06:26;42.37;;;40.47;;
37495;SDS011;23346;52.088;4.746;2024-03-23T15:08:51;41.40;;;39.60;;
37495;SDS011;23346;52.088;4.746;2024-03-23T15:11:19;56.33;;;53.57;;
37495;SDS011;23346;52.088;4.746;2024-03-23T15:13:45;54.50;;;51.37;;
37495;SDS011;23346;52.088;4.746;2024-03-23T15:16:16;56.67;;;54.00;;
37495;SDS011;23346;52.088;4.746;2024-03-23T15:18:42;45.13;;;43.07;;
37495;SDS011;23346;52.088;4.746;2024-03-23T15:21:08;39.50;;;37.80;;
37495;SDS011;23346;52.088;4.746;2024-03-23T15:23:36;49.03;;;46.83;;
37495;SDS011;23346;52.088;4.746;2024-03-23T15:26:02;53.37;;;50.97;;